sensor_id;sensor_type;location;lat;lon;timestamp;temperature;humidity
1626;DHT22;806;48.770;9.156;2024-01-30T00:00:08;5.50;1.00
1626;DHT22;806;48.770;9.156;2024-01-30T00:02:35;5.50;99.90
1626;DHT22;806;48.770;9.156;2024-01-30T00:05:02;5.50;99.90
1626;DHT22;806;48.770;9.156;2024-01-30T00:07:30;5.50;1.00
1626;DHT22;806;48.770;9.156;2024-01-30T00:09:57;5.50;1.00
1626;DHT22;806;48.770;9.156;2024-01-30T00:12:25;5.50;21.10
1626;DHT22;806;48.770;9.156;2024-01-30T00:14:52;5.50;1.00
1626;DHT22;806;48.770;9.156;2024-01-30T00:17:20;5.50;1.00
1626;DHT22;806;48.770;9.156;2024-01-30T00:19:47;5.40;1.00
1626;DHT22;806;48.770;9.156;2024-01-30T00:22:14;5.50;1.00
1626;DHT22;806;48.770;9.156;2024-01-30T00:24:41;5.40;1.00
1626;DHT22;806;48.770;9.156;2024-01-30T00:27:08;5.40;99.90
1626;DHT22;806;48.770;9.156;2024-01-30T00:29:37;5.40;1.00
1626;DHT22;806;48.770;9.156;2024-01-30T00:32:04;5.30;1.00
1626;DHT22;806;48.770;9.156;2024-01-30T00:34:32;5.30;1.00
1626;DHT22;806;48.770;9.156;2024-01-30T00:36:59;5.30;1.00
1626;DHT22;806;48.770;9.156;2024-01-30T00:39:25;5.30;1.00
1626;DHT22;806;48.770;9.156;2024-01-30T00:41:53;5.30;1.00
1626;DHT22;806;48.770;9.156;2024-01-30T00:44:20;5.30;1.00
1626;DHT22;806;48.770;9.156;2024-01-30T00:46:49;5.30;99.90
1626;DHT22;806;48.770;9.156;2024-01-30T00:49:15;5.30;99.90
1626;DHT22;806;48.770;9.156;2024-01-30T00:51:42;5.30;3.20
1626;DHT22;806;48.770;9.156;2024-01-30T00:54:09;5.30;1.00
1626;DHT22;806;48.770;9.156;2024-01-30T00:56:36;5.20;1.00
1626;DHT22;806;48.770;9.156;2024-01-30T00:59:04;5.40;1.00
1626;DHT22;806;48.770;9.156;2024-01-30T01:01:31;5.40;1.00
1626;DHT22;806;48.770;9.156;2024-01-30T01:03:59;5.40;26.50
1626;DHT22;806;48.770;9.156;2024-01-30T01:06:26;5.40;1.00
1626;DHT22;806;48.770;9.156;2024-01-30T01:08:53;5.40;99.90
1626;DHT22;806;48.770;9.156;2024-01-30T01:11:20;5.30;99.90
1626;DHT22;806;48.770;9.156;2024-01-30T01:13:47;5.30;1.00
1626;DHT22;806;48.770;9.156;2024-01-30T01:16:14;5.30;1.00
1626;DHT22;806;48.770;9.156;2024-01-30T01:18:41;5.40;1.00
1626;DHT22;806;48.770;9.156;2024-01-30T01:21:10;5.40;1.00
1626;DHT22;806;48.770;9.156;2024-01-30T01:23:37;5.40;1.00
1626;DHT22;806;48.770;9.156;2024-01-30T01:26:04;5.40;99.90
1626;DHT22;806;48.770;9.156;2024-01-30T01:28:31;5.30;1.00
1626;DHT22;806;48.770;9.156;2024-01-30T01:30:58;5.30;1.00
1626;DHT22;806;48.770;9.156;2024-01-30T01:33:30;5.30;1.00
1626;DHT22;806;48.770;9.156;2024-01-30T01:35:58;5.40;99.90
1626;DHT22;806;48.770;9.156;2024-01-30T01:38:26;5.30;1.00
1626;DHT22;806;48.770;9.156;2024-01-30T01:40:54;5.30;1.00
1626;DHT22;806;48.770;9.156;2024-01-30T01:43:21;5.30;1.00
1626;DHT22;806;48.770;9.156;2024-01-30T01:45:47;5.30;1.00
1626;DHT22;806;48.770;9.156;2024-01-30T01:48:15;5.30;99.90
1626;DHT22;806;48.770;9.156;2024-01-30T01:50:43;5.20;1.00
1626;DHT22;806;48.770;9.156;2024-01-30T01:53:10;5.30;1.00
1626;DHT22;806;48.770;9.156;2024-01-30T01:55:40;5.20;1.00
1626;DHT22;806;48.770;9.156;2024-01-30T01:58:07;5.20;1.00
1626;DHT22;806;48.770;9.156;2024-01-30T02:00:36;5.20;1.00
1626;DHT22;806;48.770;9.156;2024-01-30T02:03:06;5.20;1.00
1626;DHT22;806;48.770;9.156;2024-01-30T02:05:33;5.20;1.00
1626;DHT22;806;48.770;9.156;2024-01-30T02:08:01;5.10;1.00
1626;DHT22;806;48.770;9.156;2024-01-30T02:10:28;5.10;1.00
1626;DHT22;806;48.770;9.156;2024-01-30T02:12:57;5.10;1.00
1626;DHT22;806;48.770;9.156;2024-01-30T02:15:24;5.10;99.90
1626;DHT22;806;48.770;9.156;2024-01-30T02:17:51;5.10;1.00
1626;DHT22;806;48.770;9.156;2024-01-30T02:20:18;5.10;1.00
1626;DHT22;806;48.770;9.156;2024-01-30T02:22:47;5.10;1.00
1626;DHT22;806;48.770;9.156;2024-01-30T02:25:15;5.10;55.00
1626;DHT22;806;48.770;9.156;2024-01-30T02:27:42;5.00;1.00
1626;DHT22;806;48.770;9.156;2024-01-30T02:30:10;5.00;1.00
1626;DHT22;806;48.770;9.156;2024-01-30T02:32:37;4.90;21.90
1626;DHT22;806;48.770;9.156;2024-01-30T02:35:04;4.90;99.90
1626;DHT22;806;48.770;9.156;2024-01-30T02:37:31;4.90;99.90
1626;DHT22;806;48.770;9.156;2024-01-30T02:40:00;4.90;1.00
1626;DHT22;806;48.770;9.156;2024-01-30T02:42:27;4.90;1.00
1626;DHT22;806;48.770;9.156;2024-01-30T02:44:54;4.80;13.80
1626;DHT22;806;48.770;9.156;2024-01-30T02:47:21;4.80;95.90
1626;DHT22;806;48.770;9.156;2024-01-30T02:49:48;4.90;99.90
1626;DHT22;806;48.770;9.156;2024-01-30T02:52:14;4.80;99.90
1626;DHT22;806;48.770;9.156;2024-01-30T02:54:41;4.90;53.60
1626;DHT22;806;48.770;9.156;2024-01-30T02:57:10;4.80;1.00
1626;DHT22;806;48.770;9.156;2024-01-30T02:59:37;4.80;1.00
1626;DHT22;806;48.770;9.156;2024-01-30T03:02:04;4.80;99.90
1626;DHT22;806;48.770;9.156;2024-01-30T03:04:31;4.80;98.50
1626;DHT22;806;48.770;9.156;2024-01-30T03:06:58;4.80;99.90
1626;DHT22;806;48.770;9.156;2024-01-30T03:09:25;4.70;13.50
1626;DHT22;806;48.770;9.156;2024-01-30T03:11:51;4.70;45.90
1626;DHT22;806;48.770;9.156;2024-01-30T03:14:19;4.60;99.90
1626;DHT22;806;48.770;9.156;2024-01-30T03:16:47;4.50;1.00
1626;DHT22;806;48.770;9.156;2024-01-30T03:19:14;4.60;1.00
1626;DHT22;806;48.770;9.156;2024-01-30T03:21:41;4.60;1.00
1626;DHT22;806;48.770;9.156;2024-01-30T03:24:08;4.60;1.00
1626;DHT22;806;48.770;9.156;2024-01-30T03:26:35;4.60;1.00
1626;DHT22;806;48.770;9.156;2024-01-30T03:29:02;4.70;1.00
1626;DHT22;806;48.770;9.156;2024-01-30T03:31:31;4.70;1.00
1626;DHT22;806;48.770;9.156;2024-01-30T03:33:58;4.80;1.00
1626;DHT22;806;48.770;9.156;2024-01-30T03:36:25;4.80;99.90
1626;DHT22;806;48.770;9.156;2024-01-30T03:38:52;4.80;99.90
1626;DHT22;806;48.770;9.156;2024-01-30T03:41:19;4.70;99.90
1626;DHT22;806;48.770;9.156;2024-01-30T03:43:47;4.70;99.90
1626;DHT22;806;48.770;9.156;2024-01-30T03:46:14;4.70;99.90
1626;DHT22;806;48.770;9.156;2024-01-30T03:48:42;4.70;99.90
1626;DHT22;806;48.770;9.156;2024-01-30T03:51:09;4.70;99.90
1626;DHT22;806;48.770;9.156;2024-01-30T03:53:40;4.70;99.90
1626;DHT22;806;48.770;9.156;2024-01-30T03:56:07;4.70;99.90
1626;DHT22;806;48.770;9.156;2024-01-30T03:58:34;4.80;99.90
1626;DHT22;806;48.770;9.156;2024-01-30T04:01:01;4.70;99.90
1626;DHT22;806;48.770;9.156;2024-01-30T04:03:28;4.70;99.90
1626;DHT22;806;48.770;9.156;2024-01-30T04:05:56;4.70;99.90
1626;DHT22;806;48.770;9.156;2024-01-30T04:08:23;4.70;99.90
1626;DHT22;806;48.770;9.156;2024-01-30T04:10:50;4.60;99.90
1626;DHT22;806;48.770;9.156;2024-01-30T04:13:17;4.60;99.90
1626;DHT22;806;48.770;9.156;2024-01-30T04:15:44;4.60;99.90
1626;DHT22;806;48.770;9.156;2024-01-30T04:18:11;4.60;99.90
1626;DHT22;806;48.770;9.156;2024-01-30T04:20:38;4.60;99.90
1626;DHT22;806;48.770;9.156;2024-01-30T04:23:07;4.60;99.90
1626;DHT22;806;48.770;9.156;2024-01-30T04:25:34;4.50;99.90
1626;DHT22;806;48.770;9.156;2024-01-30T04:28:01;4.50;1.00
1626;DHT22;806;48.770;9.156;2024-01-30T04:30:28;4.50;99.90
1626;DHT22;806;48.770;9.156;2024-01-30T04:32:55;4.50;99.90
1626;DHT22;806;48.770;9.156;2024-01-30T04:35:22;4.50;1.00
1626;DHT22;806;48.770;9.156;2024-01-30T04:37:51;4.50;1.00
1626;DHT22;806;48.770;9.156;2024-01-30T04:40:20;4.50;1.00
1626;DHT22;806;48.770;9.156;2024-01-30T04:42:47;4.50;1.00
1626;DHT22;806;48.770;9.156;2024-01-30T04:45:14;4.50;1.00
1626;DHT22;806;48.770;9.156;2024-01-30T04:47:41;4.90;1.00
1626;DHT22;806;48.770;9.156;2024-01-30T04:50:09;4.90;1.00
1626;DHT22;806;48.770;9.156;2024-01-30T04:52:36;4.90;99.90
1626;DHT22;806;48.770;9.156;2024-01-30T04:55:03;4.90;1.00
1626;DHT22;806;48.770;9.156;2024-01-30T04:57:32;4.80;1.00
1626;DHT22;806;48.770;9.156;2024-01-30T04:59:59;4.70;1.00
1626;DHT22;806;48.770;9.156;2024-01-30T05:02:26;4.60;1.00
1626;DHT22;806;48.770;9.156;2024-01-30T05:04:53;4.60;76.60
1626;DHT22;806;48.770;9.156;2024-01-30T05:07:20;4.50;1.00
1626;DHT22;806;48.770;9.156;2024-01-30T05:09:47;4.50;1.00
1626;DHT22;806;48.770;9.156;2024-01-30T05:12:14;4.40;99.90
1626;DHT22;806;48.770;9.156;2024-01-30T05:14:43;4.50;99.90
1626;DHT22;806;48.770;9.156;2024-01-30T05:17:10;4.50;99.90
1626;DHT22;806;48.770;9.156;2024-01-30T05:19:38;4.50;99.90
1626;DHT22;806;48.770;9.156;2024-01-30T05:22:05;4.40;99.90
1626;DHT22;806;48.770;9.156;2024-01-30T05:24:32;4.50;99.90
1626;DHT22;806;48.770;9.156;2024-01-30T05:26:59;4.50;99.90
1626;DHT22;806;48.770;9.156;2024-01-30T05:29:27;4.40;99.90
1626;DHT22;806;48.770;9.156;2024-01-30T05:31:55;4.40;99.90
1626;DHT22;806;48.770;9.156;2024-01-30T05:34:22;4.30;99.90
1626;DHT22;806;48.770;9.156;2024-01-30T05:36:49;4.40;99.90
1626;DHT22;806;48.770;9.156;2024-01-30T05:39:16;4.40;1.00
1626;DHT22;806;48.770;9.156;2024-01-30T05:41:44;4.30;1.00
1626;DHT22;806;48.770;9.156;2024-01-30T05:44:10;4.30;1.00
1626;DHT22;806;48.770;9.156;2024-01-30T05:46:38;4.30;1.00
1626;DHT22;806;48.770;9.156;2024-01-30T05:49:06;4.40;1.00
1626;DHT22;806;48.770;9.156;2024-01-30T05:51:33;4.30;1.00
1626;DHT22;806;48.770;9.156;2024-01-30T05:54:00;4.40;99.90
1626;DHT22;806;48.770;9.156;2024-01-30T05:56:29;4.40;1.00
1626;DHT22;806;48.770;9.156;2024-01-30T05:58:56;4.40;1.00
1626;DHT22;806;48.770;9.156;2024-01-30T06:01:23;4.40;99.90
1626;DHT22;806;48.770;9.156;2024-01-30T06:03:50;4.40;99.90
1626;DHT22;806;48.770;9.156;2024-01-30T06:06:18;4.40;1.00
1626;DHT22;806;48.770;9.156;2024-01-30T06:08:45;4.50;99.90
1626;DHT22;806;48.770;9.156;2024-01-30T06:11:12;4.50;99.90
1626;DHT22;806;48.770;9.156;2024-01-30T06:13:39;4.50;99.90
1626;DHT22;806;48.770;9.156;2024-01-30T06:16:09;4.50;1.00
1626;DHT22;806;48.770;9.156;2024-01-30T06:18:37;5.10;1.00
1626;DHT22;806;48.770;9.156;2024-01-30T06:21:04;5.30;1.00
1626;DHT22;806;48.770;9.156;2024-01-30T06:23:33;5.20;99.90
1626;DHT22;806;48.770;9.156;2024-01-30T06:26:00;5.20;99.90
1626;DHT22;806;48.770;9.156;2024-01-30T06:28:27;5.30;1.00
1626;DHT22;806;48.770;9.156;2024-01-30T06:30:54;5.20;1.00
1626;DHT22;806;48.770;9.156;2024-01-30T06:33:21;5.50;1.00
1626;DHT22;806;48.770;9.156;2024-01-30T06:35:48;5.60;99.90
1626;DHT22;806;48.770;9.156;2024-01-30T06:38:15;5.60;1.00
1626;DHT22;806;48.770;9.156;2024-01-30T06:40:44;5.30;99.90
1626;DHT22;806;48.770;9.156;2024-01-30T06:43:12;5.20;99.90
1626;DHT22;806;48.770;9.156;2024-01-30T06:45:40;5.10;1.00
1626;DHT22;806;48.770;9.156;2024-01-30T06:48:08;5.10;99.90
1626;DHT22;806;48.770;9.156;2024-01-30T06:50:35;5.20;99.90
1626;DHT22;806;48.770;9.156;2024-01-30T06:53:02;5.20;99.90
1626;DHT22;806;48.770;9.156;2024-01-30T06:55:29;5.40;99.90
1626;DHT22;806;48.770;9.156;2024-01-30T06:57:58;5.40;99.90
1626;DHT22;806;48.770;9.156;2024-01-30T07:00:25;5.30;1.00
1626;DHT22;806;48.770;9.156;2024-01-30T07:02:52;5.20;1.00
1626;DHT22;806;48.770;9.156;2024-01-30T07:05:19;5.00;99.90
1626;DHT22;806;48.770;9.156;2024-01-30T07:07:47;5.00;1.00
1626;DHT22;806;48.770;9.156;2024-01-30T07:10:14;4.90;1.00
1626;DHT22;806;48.770;9.156;2024-01-30T07:12:41;4.80;1.00
1626;DHT22;806;48.770;9.156;2024-01-30T07:15:10;4.80;99.90
1626;DHT22;806;48.770;9.156;2024-01-30T07:17:39;4.80;99.90
1626;DHT22;806;48.770;9.156;2024-01-30T07:20:07;4.90;1.00
1626;DHT22;806;48.770;9.156;2024-01-30T07:22:34;5.00;1.00
1626;DHT22;806;48.770;9.156;2024-01-30T07:25:02;5.10;99.90
1626;DHT22;806;48.770;9.156;2024-01-30T07:27:29;5.00;1.00
1626;DHT22;806;48.770;9.156;2024-01-30T07:29:56;5.00;1.00
1626;DHT22;806;48.770;9.156;2024-01-30T07:32:24;5.20;99.90
1626;DHT22;806;48.770;9.156;2024-01-30T07:34:51;5.20;1.00
1626;DHT22;806;48.770;9.156;2024-01-30T07:37:18;5.10;1.00
1626;DHT22;806;48.770;9.156;2024-01-30T07:39:45;5.00;1.00
1626;DHT22;806;48.770;9.156;2024-01-30T07:42:12;5.00;1.00
1626;DHT22;806;48.770;9.156;2024-01-30T07:44:39;5.00;99.70
1626;DHT22;806;48.770;9.156;2024-01-30T07:47:06;5.10;10.00
1626;DHT22;806;48.770;9.156;2024-01-30T07:49:35;5.20;1.00
1626;DHT22;806;48.770;9.156;2024-01-30T07:52:26;5.10;1.00
1626;DHT22;806;48.770;9.156;2024-01-30T07:54:53;5.20;1.00
1626;DHT22;806;48.770;9.156;2024-01-30T07:57:20;5.40;99.90
1626;DHT22;806;48.770;9.156;2024-01-30T07:59:48;5.40;1.00
1626;DHT22;806;48.770;9.156;2024-01-30T08:02:15;5.50;99.90
1626;DHT22;806;48.770;9.156;2024-01-30T08:04:43;5.60;1.00
1626;DHT22;806;48.770;9.156;2024-01-30T08:07:14;5.80;1.00
1626;DHT22;806;48.770;9.156;2024-01-30T08:09:41;5.80;97.20
1626;DHT22;806;48.770;9.156;2024-01-30T08:12:08;6.00;1.00
1626;DHT22;806;48.770;9.156;2024-01-30T08:14:35;6.30;1.00
1626;DHT22;806;48.770;9.156;2024-01-30T08:17:02;6.30;66.70
1626;DHT22;806;48.770;9.156;2024-01-30T08:19:29;6.50;1.00
1626;DHT22;806;48.770;9.156;2024-01-30T08:21:57;6.50;1.00
1626;DHT22;806;48.770;9.156;2024-01-30T08:24:24;6.40;1.00
1626;DHT22;806;48.770;9.156;2024-01-30T08:26:51;6.50;99.90
1626;DHT22;806;48.770;9.156;2024-01-30T08:29:18;6.50;1.00
1626;DHT22;806;48.770;9.156;2024-01-30T08:31:46;6.60;99.90
1626;DHT22;806;48.770;9.156;2024-01-30T08:34:13;6.60;1.00
1626;DHT22;806;48.770;9.156;2024-01-30T08:36:40;6.50;80.20
1626;DHT22;806;48.770;9.156;2024-01-30T08:39:08;6.50;1.00
1626;DHT22;806;48.770;9.156;2024-01-30T08:41:36;6.50;1.00
1626;DHT22;806;48.770;9.156;2024-01-30T08:44:03;6.60;99.90
1626;DHT22;806;48.770;9.156;2024-01-30T08:46:30;6.80;99.90
1626;DHT22;806;48.770;9.156;2024-01-30T08:48:57;6.80;99.90
1626;DHT22;806;48.770;9.156;2024-01-30T08:51:24;6.80;99.90
1626;DHT22;806;48.770;9.156;2024-01-30T08:53:51;6.80;99.90
1626;DHT22;806;48.770;9.156;2024-01-30T08:56:21;6.80;99.90
1626;DHT22;806;48.770;9.156;2024-01-30T08:58:48;6.80;99.90
1626;DHT22;806;48.770;9.156;2024-01-30T09:01:16;6.80;99.90
1626;DHT22;806;48.770;9.156;2024-01-30T09:03:46;6.90;99.90
1626;DHT22;806;48.770;9.156;2024-01-30T09:06:14;6.90;99.90
1626;DHT22;806;48.770;9.156;2024-01-30T09:08:41;7.00;99.90
1626;DHT22;806;48.770;9.156;2024-01-30T09:11:09;7.00;99.90
1626;DHT22;806;48.770;9.156;2024-01-30T09:13:40;7.10;99.90
1626;DHT22;806;48.770;9.156;2024-01-30T09:16:10;7.10;99.90
1626;DHT22;806;48.770;9.156;2024-01-30T09:18:38;7.30;99.90
1626;DHT22;806;48.770;9.156;2024-01-30T09:21:07;7.30;40.30
1626;DHT22;806;48.770;9.156;2024-01-30T09:23:34;7.40;1.00
1626;DHT22;806;48.770;9.156;2024-01-30T09:26:01;7.40;1.00
1626;DHT22;806;48.770;9.156;2024-01-30T09:28:29;7.40;1.00
1626;DHT22;806;48.770;9.156;2024-01-30T09:30:57;7.40;1.00
1626;DHT22;806;48.770;9.156;2024-01-30T09:33:24;7.40;1.00
1626;DHT22;806;48.770;9.156;2024-01-30T09:35:51;7.30;1.00
1626;DHT22;806;48.770;9.156;2024-01-30T09:38:18;7.40;1.00
1626;DHT22;806;48.770;9.156;2024-01-30T09:40:51;7.50;1.00
1626;DHT22;806;48.770;9.156;2024-01-30T09:43:22;7.60;1.00
1626;DHT22;806;48.770;9.156;2024-01-30T09:45:50;7.70;1.00
1626;DHT22;806;48.770;9.156;2024-01-30T09:48:19;7.70;1.00
1626;DHT22;806;48.770;9.156;2024-01-30T09:50:48;7.90;1.00
1626;DHT22;806;48.770;9.156;2024-01-30T09:53:17;8.00;1.00
1626;DHT22;806;48.770;9.156;2024-01-30T09:55:44;8.20;1.00
1626;DHT22;806;48.770;9.156;2024-01-30T09:58:12;8.30;1.00
1626;DHT22;806;48.770;9.156;2024-01-30T10:00:39;8.20;1.00
1626;DHT22;806;48.770;9.156;2024-01-30T10:03:07;8.30;1.00
1626;DHT22;806;48.770;9.156;2024-01-30T10:05:36;8.30;1.00
1626;DHT22;806;48.770;9.156;2024-01-30T10:08:06;8.30;99.90
1626;DHT22;806;48.770;9.156;2024-01-30T10:10:33;8.40;99.90
1626;DHT22;806;48.770;9.156;2024-01-30T10:13:01;8.50;99.90
1626;DHT22;806;48.770;9.156;2024-01-30T10:15:28;8.50;99.90
1626;DHT22;806;48.770;9.156;2024-01-30T10:17:55;8.60;99.90
1626;DHT22;806;48.770;9.156;2024-01-30T10:20:24;8.80;99.90
1626;DHT22;806;48.770;9.156;2024-01-30T10:22:53;8.80;99.90
1626;DHT22;806;48.770;9.156;2024-01-30T10:25:21;8.90;99.90
1626;DHT22;806;48.770;9.156;2024-01-30T10:27:52;8.90;99.90
1626;DHT22;806;48.770;9.156;2024-01-30T10:30:20;8.90;99.90
1626;DHT22;806;48.770;9.156;2024-01-30T10:32:48;9.00;99.90
1626;DHT22;806;48.770;9.156;2024-01-30T10:35:15;9.10;99.90
1626;DHT22;806;48.770;9.156;2024-01-30T10:37:43;9.10;99.90
1626;DHT22;806;48.770;9.156;2024-01-30T10:40:14;9.20;99.90
1626;DHT22;806;48.770;9.156;2024-01-30T10:42:43;9.20;99.90
1626;DHT22;806;48.770;9.156;2024-01-30T10:45:11;9.30;99.90
1626;DHT22;806;48.770;9.156;2024-01-30T10:47:40;9.40;99.90
1626;DHT22;806;48.770;9.156;2024-01-30T10:50:09;9.50;99.90
1626;DHT22;806;48.770;9.156;2024-01-30T10:52:39;9.50;99.90
1626;DHT22;806;48.770;9.156;2024-01-30T10:55:08;9.50;99.90
1626;DHT22;806;48.770;9.156;2024-01-30T10:57:37;9.60;99.90
1626;DHT22;806;48.770;9.156;2024-01-30T11:00:06;9.70;99.90
1626;DHT22;806;48.770;9.156;2024-01-30T11:02:38;9.60;99.90
1626;DHT22;806;48.770;9.156;2024-01-30T11:05:05;9.70;99.90
1626;DHT22;806;48.770;9.156;2024-01-30T11:07:34;9.90;99.90
1626;DHT22;806;48.770;9.156;2024-01-30T11:10:03;10.00;99.90
1626;DHT22;806;48.770;9.156;2024-01-30T11:12:31;10.00;99.90
1626;DHT22;806;48.770;9.156;2024-01-30T11:15:06;10.20;99.90
1626;DHT22;806;48.770;9.156;2024-01-30T11:17:43;10.30;99.90
1626;DHT22;806;48.770;9.156;2024-01-30T11:20:11;10.30;99.90
1626;DHT22;806;48.770;9.156;2024-01-30T11:22:42;10.30;99.90
1626;DHT22;806;48.770;9.156;2024-01-30T11:25:12;10.30;99.90
1626;DHT22;806;48.770;9.156;2024-01-30T11:27:40;10.30;99.90
1626;DHT22;806;48.770;9.156;2024-01-30T11:30:09;10.30;99.90
1626;DHT22;806;48.770;9.156;2024-01-30T11:32:37;10.30;99.90
1626;DHT22;806;48.770;9.156;2024-01-30T11:35:05;10.40;91.60
1626;DHT22;806;48.770;9.156;2024-01-30T11:37:37;10.40;95.60
1626;DHT22;806;48.770;9.156;2024-01-30T11:40:05;10.40;98.90
1626;DHT22;806;48.770;9.156;2024-01-30T11:42:32;10.50;93.40
1626;DHT22;806;48.770;9.156;2024-01-30T11:45:01;10.50;84.70
1626;DHT22;806;48.770;9.156;2024-01-30T11:47:30;10.60;75.50
1626;DHT22;806;48.770;9.156;2024-01-30T11:49:57;10.60;84.80
1626;DHT22;806;48.770;9.156;2024-01-30T11:52:24;10.60;76.70
1626;DHT22;806;48.770;9.156;2024-01-30T11:54:51;10.70;86.60
1626;DHT22;806;48.770;9.156;2024-01-30T11:57:19;10.80;71.00
1626;DHT22;806;48.770;9.156;2024-01-30T11:59:46;10.90;45.60
1626;DHT22;806;48.770;9.156;2024-01-30T12:02:16;11.00;43.70
1626;DHT22;806;48.770;9.156;2024-01-30T12:04:45;11.10;53.50
1626;DHT22;806;48.770;9.156;2024-01-30T12:07:12;11.10;53.20
1626;DHT22;806;48.770;9.156;2024-01-30T12:09:41;11.20;29.80
1626;DHT22;806;48.770;9.156;2024-01-30T12:12:08;11.10;22.90
1626;DHT22;806;48.770;9.156;2024-01-30T12:14:38;11.20;25.50
1626;DHT22;806;48.770;9.156;2024-01-30T12:17:06;11.20;14.40
1626;DHT22;806;48.770;9.156;2024-01-30T12:19:35;11.10;19.20
1626;DHT22;806;48.770;9.156;2024-01-30T12:22:03;11.20;27.00
1626;DHT22;806;48.770;9.156;2024-01-30T12:24:33;11.20;17.00
1626;DHT22;806;48.770;9.156;2024-01-30T12:27:01;11.20;19.50
1626;DHT22;806;48.770;9.156;2024-01-30T12:29:32;11.30;22.00
1626;DHT22;806;48.770;9.156;2024-01-30T12:32:00;11.30;24.00
1626;DHT22;806;48.770;9.156;2024-01-30T12:34:27;11.50;29.30
1626;DHT22;806;48.770;9.156;2024-01-30T12:36:54;11.60;21.50
1626;DHT22;806;48.770;9.156;2024-01-30T12:39:22;11.70;8.80
1626;DHT22;806;48.770;9.156;2024-01-30T12:41:49;11.90;1.00
1626;DHT22;806;48.770;9.156;2024-01-30T12:44:16;11.90;1.00
1626;DHT22;806;48.770;9.156;2024-01-30T12:46:43;12.00;1.00
1626;DHT22;806;48.770;9.156;2024-01-30T12:49:10;12.00;1.00
1626;DHT22;806;48.770;9.156;2024-01-30T12:51:38;12.00;1.00
1626;DHT22;806;48.770;9.156;2024-01-30T12:54:06;12.00;1.00
1626;DHT22;806;48.770;9.156;2024-01-30T12:56:34;12.10;1.00
1626;DHT22;806;48.770;9.156;2024-01-30T12:59:01;12.00;1.00
1626;DHT22;806;48.770;9.156;2024-01-30T13:01:28;12.00;1.00
1626;DHT22;806;48.770;9.156;2024-01-30T13:03:55;12.00;1.00
1626;DHT22;806;48.770;9.156;2024-01-30T13:06:24;12.10;1.00
1626;DHT22;806;48.770;9.156;2024-01-30T13:08:51;12.30;1.00
1626;DHT22;806;48.770;9.156;2024-01-30T13:11:18;12.40;1.00
1626;DHT22;806;48.770;9.156;2024-01-30T13:13:46;12.50;1.00
1626;DHT22;806;48.770;9.156;2024-01-30T13:16:13;12.40;1.00
1626;DHT22;806;48.770;9.156;2024-01-30T13:18:40;12.40;1.00
1626;DHT22;806;48.770;9.156;2024-01-30T13:21:07;12.50;1.00
1626;DHT22;806;48.770;9.156;2024-01-30T13:23:34;12.70;1.00
1626;DHT22;806;48.770;9.156;2024-01-30T13:26:01;12.70;1.00
1626;DHT22;806;48.770;9.156;2024-01-30T13:28:28;12.70;1.00
1626;DHT22;806;48.770;9.156;2024-01-30T13:30:56;12.60;1.00
1626;DHT22;806;48.770;9.156;2024-01-30T13:33:23;12.50;1.00
1626;DHT22;806;48.770;9.156;2024-01-30T13:35:50;12.40;1.00
1626;DHT22;806;48.770;9.156;2024-01-30T13:38:17;12.40;1.00
1626;DHT22;806;48.770;9.156;2024-01-30T13:40:44;12.40;1.00
1626;DHT22;806;48.770;9.156;2024-01-30T13:43:14;12.30;1.00
1626;DHT22;806;48.770;9.156;2024-01-30T13:45:41;12.20;1.00
1626;DHT22;806;48.770;9.156;2024-01-30T13:48:10;12.10;1.00
1626;DHT22;806;48.770;9.156;2024-01-30T13:50:37;12.10;1.00
1626;DHT22;806;48.770;9.156;2024-01-30T13:53:04;12.20;1.00
1626;DHT22;806;48.770;9.156;2024-01-30T13:55:31;12.20;1.00
1626;DHT22;806;48.770;9.156;2024-01-30T13:57:58;12.10;1.00
1626;DHT22;806;48.770;9.156;2024-01-30T14:00:27;12.00;1.00
1626;DHT22;806;48.770;9.156;2024-01-30T14:02:54;12.10;1.00
1626;DHT22;806;48.770;9.156;2024-01-30T14:05:24;12.10;1.00
1626;DHT22;806;48.770;9.156;2024-01-30T14:07:51;12.10;1.00
1626;DHT22;806;48.770;9.156;2024-01-30T14:10:19;12.20;1.00
1626;DHT22;806;48.770;9.156;2024-01-30T14:12:46;12.20;1.00
1626;DHT22;806;48.770;9.156;2024-01-30T14:15:13;12.10;1.00
1626;DHT22;806;48.770;9.156;2024-01-30T14:17:43;12.00;1.00
1626;DHT22;806;48.770;9.156;2024-01-30T14:20:11;12.10;1.00
1626;DHT22;806;48.770;9.156;2024-01-30T14:22:39;12.10;1.00
1626;DHT22;806;48.770;9.156;2024-01-30T14:25:07;12.20;1.00
1626;DHT22;806;48.770;9.156;2024-01-30T14:27:35;12.20;1.00
1626;DHT22;806;48.770;9.156;2024-01-30T14:30:02;12.20;1.00
1626;DHT22;806;48.770;9.156;2024-01-30T14:32:30;12.20;1.00
1626;DHT22;806;48.770;9.156;2024-01-30T14:34:57;12.20;1.00
1626;DHT22;806;48.770;9.156;2024-01-30T14:37:24;12.20;1.00
1626;DHT22;806;48.770;9.156;2024-01-30T14:39:52;12.20;1.00
1626;DHT22;806;48.770;9.156;2024-01-30T14:42:19;12.10;1.00
1626;DHT22;806;48.770;9.156;2024-01-30T14:44:46;12.10;1.00
1626;DHT22;806;48.770;9.156;2024-01-30T14:47:14;12.00;1.00
1626;DHT22;806;48.770;9.156;2024-01-30T14:49:41;12.00;1.00
1626;DHT22;806;48.770;9.156;2024-01-30T14:52:08;12.00;1.00
1626;DHT22;806;48.770;9.156;2024-01-30T14:54:36;12.00;1.00
1626;DHT22;806;48.770;9.156;2024-01-30T14:57:05;11.90;1.00
1626;DHT22;806;48.770;9.156;2024-01-30T14:59:32;11.80;1.00
1626;DHT22;806;48.770;9.156;2024-01-30T15:02:00;11.80;1.00
1626;DHT22;806;48.770;9.156;2024-01-30T15:04:27;11.80;1.00
1626;DHT22;806;48.770;9.156;2024-01-30T15:06:54;11.70;1.00
1626;DHT22;806;48.770;9.156;2024-01-30T15:09:21;11.60;1.00
1626;DHT22;806;48.770;9.156;2024-01-30T15:11:48;11.50;1.00
1626;DHT22;806;48.770;9.156;2024-01-30T15:14:17;11.50;9.10
1626;DHT22;806;48.770;9.156;2024-01-30T15:16:44;11.40;19.40
1626;DHT22;806;48.770;9.156;2024-01-30T15:19:11;11.40;24.50
1626;DHT22;806;48.770;9.156;2024-01-30T15:21:38;11.30;30.30
1626;DHT22;806;48.770;9.156;2024-01-30T15:24:05;11.30;47.30
1626;DHT22;806;48.770;9.156;2024-01-30T15:26:33;11.30;49.50
1626;DHT22;806;48.770;9.156;2024-01-30T15:29:00;11.20;53.00
1626;DHT22;806;48.770;9.156;2024-01-30T15:31:28;11.20;64.10
1626;DHT22;806;48.770;9.156;2024-01-30T15:33:55;11.10;73.10
1626;DHT22;806;48.770;9.156;2024-01-30T15:36:23;11.10;99.00
1626;DHT22;806;48.770;9.156;2024-01-30T15:38:50;11.00;99.90
1626;DHT22;806;48.770;9.156;2024-01-30T15:41:17;11.00;99.90
1626;DHT22;806;48.770;9.156;2024-01-30T15:43:44;10.90;99.90
1626;DHT22;806;48.770;9.156;2024-01-30T15:46:11;10.90;99.90
1626;DHT22;806;48.770;9.156;2024-01-30T15:48:40;10.90;99.90
1626;DHT22;806;48.770;9.156;2024-01-30T15:51:07;10.80;99.90
1626;DHT22;806;48.770;9.156;2024-01-30T15:53:34;10.80;99.90
1626;DHT22;806;48.770;9.156;2024-01-30T15:56:02;10.80;99.90
1626;DHT22;806;48.770;9.156;2024-01-30T15:58:30;10.70;99.90
1626;DHT22;806;48.770;9.156;2024-01-30T16:00:57;10.70;99.90
1626;DHT22;806;48.770;9.156;2024-01-30T16:03:24;10.60;99.90
1626;DHT22;806;48.770;9.156;2024-01-30T16:05:53;10.50;99.90
1626;DHT22;806;48.770;9.156;2024-01-30T16:08:20;10.50;99.90
1626;DHT22;806;48.770;9.156;2024-01-30T16:10:47;10.50;99.90
1626;DHT22;806;48.770;9.156;2024-01-30T16:13:14;10.50;99.90
1626;DHT22;806;48.770;9.156;2024-01-30T16:15:41;10.40;1.00
1626;DHT22;806;48.770;9.156;2024-01-30T16:18:09;10.40;1.00
1626;DHT22;806;48.770;9.156;2024-01-30T16:20:36;10.30;1.00
1626;DHT22;806;48.770;9.156;2024-01-30T16:23:04;10.30;1.00
1626;DHT22;806;48.770;9.156;2024-01-30T16:25:31;10.30;99.90
1626;DHT22;806;48.770;9.156;2024-01-30T16:27:58;10.40;99.90
1626;DHT22;806;48.770;9.156;2024-01-30T16:30:26;10.50;50.90
1626;DHT22;806;48.770;9.156;2024-01-30T16:32:54;10.60;1.00
1626;DHT22;806;48.770;9.156;2024-01-30T16:35:21;10.60;1.00
1626;DHT22;806;48.770;9.156;2024-01-30T16:37:48;10.50;1.00